Time;durP1;ratioP1;P1;durP2;ratioP2;P2;SDS_P1;SDS_P2;PMS_P1;PMS_P2;Temp;Humidity;BMP_temperature;BMP_pressure;BME280_temperature;BME280_humidity;BME280_pressure;Samples;Min_cycle;Max_cycle;Signal;HPM_P1;HPM_P2
2022/04/25 00:00:46;;;;;;;;;14.00;11.25;;;;;16.41;38.17;100296.78;4982791;28;45289;-58
2022/04/25 00:03:11;;;;;;;;;13.75;13.75;;;;;16.37;37.96;100288.09;4981579;28;45362;-58
2022/04/25 00:05:36;;;;;;;;;10.50;10.50;;;;;16.35;38.34;100291.75;4981531;28;45504;-58
2022/04/25 00:08:02;;;;;;;;;13.25;11.50;;;;;16.31;38.22;100292.81;4982302;28;45282;-58
2022/04/25 00:10:27;;;;;;;;;12.50;11.50;;;;;16.28;38.28;100295.63;4982769;28;45298;-58
2022/04/25 00:12:52;;;;;;;;;9.50;9.50;;;;;16.24;38.51;100293.09;4982916;28;45151;-58
2022/04/25 00:15:18;;;;;;;;;15.25;14.00;;;;;16.22;38.48;100289.66;4982504;28;45303;-58
2022/04/25 00:17:43;;;;;;;;;13.50;12.25;;;;;16.21;38.45;100293.25;4982583;28;45398;-58
2022/04/25 00:20:10;;;;;;;;;14.50;12.50;;;;;16.17;38.57;100296.94;4982739;28;45333;-57
2022/04/25 00:22:36;;;;;;;;;16.00;12.25;;;;;16.12;38.21;100282.19;4982723;28;45218;-58
2022/04/25 00:25:02;;;;;;;;;12.00;12.00;;;;;16.07;38.54;100287.69;4980783;28;46915;-58
2022/04/25 00:27:29;;;;;;;;;13.25;13.00;;;;;16.08;38.54;100292.06;4982399;28;45364;-58
2022/04/25 00:29:55;;;;;;;;;13.25;13.25;;;;;16.06;38.07;100299.22;4982254;28;45329;-58
2022/04/25 00:32:21;;;;;;;;;14.50;12.75;;;;;16.03;38.49;100294.06;4981911;28;45422;-58
2022/04/25 00:34:46;;;;;;;;;11.00;9.50;;;;;15.99;38.22;100292.47;4982170;28;47386;-58
2022/04/25 00:37:11;;;;;;;;;11.75;11.00;;;;;15.96;38.70;100300.56;4982653;28;45293;-58
2022/04/25 00:39:37;;;;;;;;;13.50;10.25;;;;;15.89;38.28;100292.03;4982151;28;45243;-58
2022/04/25 00:42:03;;;;;;;;;13.00;13.00;;;;;15.89;38.71;100292.88;4982304;28;45339;-58
2022/04/25 00:44:28;;;;;;;;;12.50;12.50;;;;;15.86;38.50;100302.72;4980830;28;47484;-58
2022/04/25 00:46:55;;;;;;;;;13.75;12.25;;;;;15.83;38.53;100287.84;4981948;28;45280;-58
2022/04/25 00:49:22;;;;;;;;;8.25;8.25;;;;;15.76;38.36;100294.31;4982240;28;45309;-58
2022/04/25 00:51:47;;;;;;;;;13.25;11.00;;;;;15.76;38.68;100295.16;4980795;28;45374;-58
2022/04/25 00:54:14;;;;;;;;;12.75;12.25;;;;;15.74;38.83;100288.22;4980703;28;46966;-58
2022/04/25 00:56:39;;;;;;;;;14.50;12.50;;;;;15.72;38.62;100298.00;4982178;28;45384;-58
2022/04/25 00:59:06;;;;;;;;;11.50;11.50;;;;;15.68;38.80;100293.75;4980575;28;45345;-57
2022/04/25 01:01:32;;;;;;;;;12.00;11.00;;;;;15.64;38.28;100292.19;4981780;28;45492;-58
2022/04/25 01:03:58;;;;;;;;;11.25;10.00;;;;;15.60;38.64;100300.25;4981670;28;46368;-58
2022/04/25 01:06:23;;;;;;;;;11.75;11.75;;;;;15.58;38.64;100298.59;4964416;28;45301;-58
2022/04/25 01:08:51;;;;;;;;;9.50;9.50;;;;;15.54;38.70;100294.34;4982151;28;45208;-57
2022/04/25 01:11:17;;;;;;;;;10.25;8.25;;;;;15.51;38.70;100305.06;4981694;28;45233;-57
2022/04/25 01:13:43;;;;;;;;;12.00;9.75;;;;;15.48;38.81;100305.19;4981592;28;46904;-58
2022/04/25 01:16:09;;;;;;;;;9.75;8.00;;;;;15.44;38.57;100299.16;4981542;28;45471;-58
2022/04/25 01:18:34;;;;;;;;;9.00;8.25;;;;;15.42;38.59;100312.47;4980497;28;45309;-58
2022/04/25 01:21:02;;;;;;;;;11.25;10.50;;;;;15.38;39.00;100299.41;4980303;28;45480;-57
2022/04/25 01:28:58;;;;;;;;;12.75;12.00;;;;;15.23;38.69;100296.47;4981717;28;45472;-57
2022/04/25 01:31:24;;;;;;;;;12.50;11.00;;;;;15.23;38.83;100295.59;4980788;28;45556;-57
2022/04/25 01:33:49;;;;;;;;;11.50;10.75;;;;;15.20;38.89;100296.59;4981275;28;46204;-57
2022/04/25 01:36:15;;;;;;;;;9.25;9.25;;;;;15.15;38.84;100298.56;4981433;28;45350;-57
2022/04/25 01:38:41;;;;;;;;;10.50;9.25;;;;;15.11;39.33;100284.59;4981628;28;45229;-57
2022/04/25 01:41:06;;;;;;;;;10.25;10.25;;;;;15.13;39.08;100296.91;4981191;28;45523;-57
2022/04/25 01:43:36;;;;;;;;;11.75;11.75;;;;;15.10;39.14;100293.44;4980028;28;48048;-57
2022/04/25 01:46:03;;;;;;;;;10.50;10.50;;;;;15.08;38.87;100297.09;4981184;28;45418;-58
2022/04/25 01:48:29;;;;;;;;;14.75;13.25;;;;;15.04;39.43;100293.72;4981349;28;45302;-57
2022/04/25 01:50:55;;;;;;;;;8.75;8.25;;;;;15.04;39.23;100298.13;4981019;28;45258;-57
2022/04/25 01:53:20;;;;;;;;;11.00;11.00;;;;;15.03;38.97;100307.88;4981404;28;46492;-57
2022/04/25 01:55:45;;;;;;;;;14.50;12.75;;;;;15.01;39.51;100303.56;4981005;28;45298;-57
2022/04/25 01:58:11;;;;;;;;;12.50;12.00;;;;;15.00;39.48;100302.69;4981555;28;45286;-57
2022/04/25 02:00:36;;;;;;;;;9.25;5.00;;;;;14.99;39.33;100300.94;4981008;28;45171;-57
2022/04/25 02:03:02;;;;;;;;;11.00;10.00;;;;;14.95;39.43;100299.34;4980957;28;46266;-57
2022/04/25 02:05:27;;;;;;;;;10.00;10.00;;;;;14.94;39.36;100298.50;4980884;28;45358;-57
2022/04/25 02:07:52;;;;;;;;;10.00;10.00;;;;;14.94;39.28;100301.16;4981325;28;45388;-58
2022/04/25 02:10:18;;;;;;;;;13.50;12.50;;;;;14.93;39.79;100307.38;4980703;28;45441;-57
2022/04/25 02:12:43;;;;;;;;;13.75;13.00;;;;;14.89;39.22;100310.19;4980903;28;46263;-58
2022/04/25 02:15:12;;;;;;;;;9.50;9.50;;;;;14.90;39.63;100319.84;4979549;28;45386;-57
2022/04/25 02:17:38;;;;;;;;;10.00;7.25;;;;;14.88;39.68;100322.56;4979786;28;45378;-57
2022/04/25 02:20:04;;;;;;;;;13.00;12.00;;;;;14.87;39.24;100319.97;4980742;28;45272;-57
2022/04/25 02:22:29;;;;;;;;;13.25;10.25;;;;;14.84;39.42;100318.31;4980724;28;46243;-57
2022/04/25 02:24:55;;;;;;;;;10.25;10.25;;;;;14.83;39.21;100321.00;4971338;28;45428;-58
2022/04/25 02:27:21;;;;;;;;;12.75;11.75;;;;;14.79;39.47;100323.78;4980892;28;45283;-57
2022/04/25 02:29:48;;;;;;;;;10.50;10.50;;;;;14.76;39.66;100317.72;4980189;28;45673;-57
2022/04/25 02:32:13;;;;;;;;;12.75;11.50;;;;;14.76;39.92;100318.59;4980038;28;45990;-57
2022/04/25 02:34:42;;;;;;;;;12.00;10.50;;;;;14.75;39.65;100323.94;4980391;28;45326;-57
2022/04/25 02:37:08;;;;;;;;;10.00;9.25;;;;;14.70;40.12;100318.81;4980948;28;45228;-58
2022/04/25 02:39:33;;;;;;;;;13.50;11.25;;;;;14.68;39.85;100325.09;4980287;28;45478;-57
2022/04/25 02:41:58;;;;;;;;;13.25;12.25;;;;;14.65;39.99;100322.56;4980480;28;46043;-57
2022/04/25 02:44:24;;;;;;;;;14.00;11.25;;;;;14.61;39.88;100319.13;4979145;28;45359;-56
2022/04/25 02:46:49;;;;;;;;;16.00;14.25;;;;;14.58;40.05;100328.06;4980521;28;45230;-57
2022/04/25 02:49:14;;;;;;;;;12.75;12.00;;;;;14.56;40.04;100321.09;4979210;28;45773;-57
2022/04/25 02:51:40;;;;;;;;;14.50;13.75;;;;;14.53;39.81;100324.72;4980342;28;45255;-58
2022/04/25 02:54:05;;;;;;;;;16.50;15.50;;;;;14.43;39.61;100316.25;4980120;28;45235;-58
2022/04/25 02:56:31;;;;;;;;;13.75;10.50;;;;;14.46;40.12;100328.50;4980691;28;45299;-57
2022/04/25 02:58:56;;;;;;;;;14.25;12.00;;;;;14.41;40.23;100325.16;4980179;28;45740;-57
2022/04/25 03:01:21;;;;;;;;;15.00;12.50;;;;;14.39;40.01;100327.88;4980165;28;45311;-57
2022/04/25 03:03:47;;;;;;;;;19.25;16.00;;;;;14.35;39.93;100328.03;4978931;28;45502;-57
2022/04/25 03:06:12;;;;;;;;;16.50;14.25;;;;;14.31;40.52;100324.63;4980391;28;45337;-57
2022/04/25 03:08:39;;;;;;;;;12.25;12.00;;;;;14.28;40.46;100330.06;4980186;28;45282;-56
2022/04/25 03:11:08;;;;;;;;;14.25;10.00;;;;;14.24;40.57;100328.44;4979789;28;47332;-57
2022/04/25 03:13:35;;;;;;;;;11.75;11.25;;;;;14.18;40.73;100324.22;4980099;28;45230;-56
2022/04/25 03:16:04;;;;;;;;;12.00;11.75;;;;;14.16;40.55;100335.78;4978749;28;45308;-57
2022/04/25 03:18:29;;;;;;;;;15.50;14.75;;;;;14.12;40.16;100343.81;4979986;28;45625;-57
2022/04/25 03:20:56;;;;;;;;;12.25;12.00;;;;;14.09;40.68;100343.06;4979869;28;46004;-57
2022/04/25 03:23:23;;;;;;;;;19.00;16.25;;;;;14.05;40.40;100344.94;4979946;28;45325;-57
2022/04/25 03:25:50;;;;;;;;;11.00;10.00;;;;;14.02;40.64;100344.19;4979726;28;45308;-58
2022/04/25 03:28:16;;;;;;;;;11.50;10.75;;;;;13.97;40.62;100342.56;4978711;28;45445;-58
2022/04/25 03:30:41;;;;;;;;;11.75;10.25;;;;;13.92;40.61;100339.22;4979710;28;46398;-58
2022/04/25 03:33:08;;;;;;;;;16.25;13.50;;;;;13.90;40.64;100346.34;4978017;28;45252;-57
2022/04/25 03:35:34;;;;;;;;;12.00;8.50;;;;;13.85;40.74;100345.63;4979991;28;45372;-57
2022/04/25 03:38:01;;;;;;;;;14.75;12.25;;;;;13.86;40.91;100343.84;4979765;28;45463;-56
2022/04/25 03:40:26;;;;;;;;;16.00;14.50;;;;;13.82;41.02;100348.34;4978141;28;47032;-56
2022/04/25 03:42:53;;;;;;;;;16.00;13.25;;;;;13.79;41.10;100344.03;4981728;28;45338;-57
2022/04/25 03:45:19;;;;;;;;;11.50;9.25;;;;;13.79;41.04;100348.47;4981916;28;45474;-56
2022/04/25 03:47:45;;;;;;;;;16.00;12.75;;;;;13.76;41.05;100348.56;4982757;28;45160;-56
2022/04/25 03:50:12;;;;;;;;;12.00;11.00;;;;;13.73;41.36;100352.16;4982959;28;45368;-56
2022/04/25 03:52:40;;;;;;;;;17.75;15.50;;;;;13.65;41.10;100341.88;4982974;28;45430;-57
2022/04/25 03:58:02;;;;;;;;;15.25;12.00;;;;;13.68;41.44;100356.75;4983004;28;45504;-57
2022/04/25 04:00:28;;;;;;;;;12.50;12.50;;;;;13.67;41.20;100362.09;4982621;28;46558;-63
2022/04/25 04:02:53;;;;;;;;;12.25;12.25;;;;;13.66;41.31;100369.16;4982606;28;45360;-58
2022/04/25 04:05:20;;;;;;;;;18.25;15.25;;;;;13.60;41.62;100359.66;4981510;28;45330;-58
2022/04/25 04:07:46;;;;;;;;;19.75;17.50;;;;;13.61;41.27;100366.66;4982876;28;45251;-57
2022/04/25 04:10:12;;;;;;;;;14.00;14.00;;;;;13.61;41.68;100361.38;4981185;28;47780;-58
2022/04/25 04:12:38;;;;;;;;;20.00;16.75;;;;;13.60;41.41;100364.91;4982534;28;45371;-58
2022/04/25 04:15:06;;;;;;;;;18.25;16.00;;;;;13.59;41.66;100378.19;4982829;28;45350;-57
2022/04/25 04:17:32;;;;;;;;;16.50;16.50;;;;;13.58;41.77;100369.38;4982484;28;45473;-57
2022/04/25 04:19:57;;;;;;;;;12.50;12.50;;;;;13.56;41.67;100371.22;4980896;28;46260;-57
2022/04/25 04:22:29;;;;;;;;;15.50;13.25;;;;;13.55;41.82;100371.28;4981422;28;45739;-57
2022/04/25 04:25:09;;;;;;;;;19.75;16.25;;;;;13.53;41.83;100373.09;4981304;28;45453;-57
2022/04/25 04:27:35;;;;;;;;;15.50;13.00;;;;;13.48;41.77;100374.13;4982484;28;45188;-57
2022/04/25 04:30:11;;;;;;;;;17.50;16.75;;;;;13.50;41.93;100379.34;4981066;28;46299;-58
2022/04/25 04:32:40;;;;;;;;;15.75;14.50;;;;;13.48;41.79;100375.88;4981890;28;45226;-58
2022/04/25 04:35:08;;;;;;;;;15.75;14.00;;;;;13.47;41.86;100384.69;4982378;28;45335;-57
2022/04/25 04:37:35;;;;;;;;;15.25;14.75;;;;;13.40;42.10;100370.84;4982345;28;45239;-58
2022/04/25 04:42:45;;;;;;;;;13.75;13.00;;;;;13.40;41.91;100381.41;4982285;28;45330;-58
2022/04/25 04:45:11;;;;;;;;;17.75;16.00;;;;;13.42;42.32;100389.25;4982320;28;45533;-57
2022/04/25 04:47:38;;;;;;;;;16.25;15.50;;;;;13.40;42.46;100386.69;4982016;28;45329;-58
2022/04/25 04:50:05;;;;;;;;;16.50;16.00;;;;;13.38;42.09;100396.41;4982044;28;45523;-57
2022/04/25 04:52:30;;;;;;;;;19.50;18.00;;;;;13.33;42.48;100386.00;4980575;28;45358;-58
2022/04/25 04:54:56;;;;;;;;;21.25;18.50;;;;;13.33;42.55;100401.81;4982061;28;45449;-58
2022/04/25 04:57:21;;;;;;;;;19.25;18.75;;;;;13.31;42.23;100413.34;4982010;28;45395;-58
2022/04/25 04:59:47;;;;;;;;;21.00;17.25;;;;;13.25;42.33;100414.38;4964470;28;48273;-58
2022/04/25 05:02:16;;;;;;;;;18.00;16.00;;;;;13.24;42.48;100428.47;4980427;28;45438;-58
2022/04/25 05:04:43;;;;;;;;;18.50;18.25;;;;;13.22;42.52;100430.31;4980964;28;45406;-58
2022/04/25 05:07:09;;;;;;;;;21.50;16.50;;;;;13.21;42.50;100430.38;4980506;28;45533;-58
2022/04/25 05:09:34;;;;;;;;;33.25;30.00;;;;;13.16;42.58;100428.72;4981632;28;45448;-58
2022/04/25 05:12:00;;;;;;;;;15.75;14.00;;;;;13.18;42.64;100428.66;4981731;28;45330;-57
2022/04/25 05:14:25;;;;;;;;;18.00;18.00;;;;;13.16;42.55;100431.34;4981943;28;45518;-58
2022/04/25 05:16:51;;;;;;;;;22.50;20.00;;;;;13.15;42.79;100441.94;4981597;28;45402;-57
2022/04/25 05:19:16;;;;;;;;;21.00;18.25;;;;;13.12;42.85;100428.88;4981615;28;46208;-58
2022/04/25 05:21:41;;;;;;;;;21.00;19.50;;;;;13.13;42.67;100438.47;4981575;28;45307;-58
2022/04/25 05:24:07;;;;;;;;;22.50;20.00;;;;;13.12;42.84;100445.56;4981775;28;45239;-58
2022/04/25 05:26:32;;;;;;;;;19.50;19.50;;;;;13.10;42.69;100444.72;4981530;28;45482;-58
2022/04/25 05:28:58;;;;;;;;;19.50;19.50;;;;;13.08;43.05;100449.19;4980481;28;46421;-57
2022/04/25 05:31:24;;;;;;;;;18.50;17.00;;;;;13.06;42.82;100452.78;4980848;28;45251;-58
2022/04/25 05:33:49;;;;;;;;;18.00;16.25;;;;;13.04;43.17;100444.03;4980378;28;45340;-57
2022/04/25 05:36:15;;;;;;;;;22.50;20.75;;;;;13.06;43.21;100453.63;4980235;28;45761;-57
2022/04/25 05:38:41;;;;;;;;;25.25;21.25;;;;;13.05;43.10;100445.78;4981563;28;45360;-56
2022/04/25 05:41:09;;;;;;;;;20.75;20.75;;;;;13.05;43.39;100444.00;4980903;28;45347;-57
2022/04/25 05:43:37;;;;;;;;;20.00;19.25;;;;;13.03;43.36;100452.84;4981549;28;45441;-57
2022/04/25 05:46:03;;;;;;;;;20.50;20.00;;;;;13.04;43.31;100444.03;4981037;28;45323;-56
2022/04/25 05:53:59;;;;;;;;;25.25;24.25;;;;;13.03;43.48;100464.28;4981224;28;45453;-57
2022/04/25 05:56:25;;;;;;;;;24.75;23.25;;;;;13.04;43.61;100473.91;4979877;28;45450;-57
2022/04/25 05:58:50;;;;;;;;;24.50;23.50;;;;;13.03;43.63;100473.97;4981262;28;45397;-58
2022/04/25 06:01:16;;;;;;;;;24.75;24.00;;;;;13.05;43.47;100480.91;4980803;28;45430;-58
2022/04/25 06:03:41;;;;;;;;;24.00;23.25;;;;;13.08;43.56;100488.75;4980069;28;45336;-57
2022/04/25 06:06:07;;;;;;;;;26.75;26.25;;;;;13.07;43.59;100484.38;4980420;28;45304;-57
2022/04/25 06:08:32;;;;;;;;;31.00;26.00;;;;;13.10;43.48;100491.34;4981003;28;45423;-56
2022/04/25 06:10:57;;;;;;;;;25.75;24.50;;;;;13.12;43.61;100492.19;4981020;28;45348;-57
2022/04/25 06:13:25;;;;;;;;;27.00;25.75;;;;;13.13;43.55;100486.84;4981081;28;45441;-57
2022/04/25 06:15:51;;;;;;;;;33.00;29.25;;;;;13.11;44.07;100480.75;4980757;28;45408;-57
2022/04/25 06:18:16;;;;;;;;;31.50;25.75;;;;;13.13;43.73;100485.97;4979452;28;45545;-57
2022/04/25 06:20:42;;;;;;;;;33.50;30.00;;;;;13.17;43.73;100492.91;4979667;28;45483;-57
2022/04/25 06:23:07;;;;;;;;;30.00;27.50;;;;;13.19;43.59;100495.50;4980818;28;45183;-56
2022/04/25 06:25:33;;;;;;;;;31.50;29.00;;;;;13.19;43.85;100496.34;4971141;28;45437;-57
2022/04/25 06:28:00;;;;;;;;;28.75;27.75;;;;;13.17;43.92;100491.13;4980628;28;45307;-57
2022/04/25 06:30:28;;;;;;;;;32.75;29.00;;;;;13.21;43.83;100498.97;4980618;28;45233;-56
2022/04/25 06:32:54;;;;;;;;;30.75;29.00;;;;;13.23;43.84;100492.75;4978844;28;45510;-57
2022/04/25 06:35:20;;;;;;;;;32.25;29.00;;;;;13.26;43.80;100500.53;4980727;28;45413;-57
2022/04/25 06:37:46;;;;;;;;;31.75;29.50;;;;;13.28;43.70;100505.78;4980622;28;45428;-57
2022/04/25 06:40:12;;;;;;;;;31.75;26.25;;;;;13.27;44.06;100498.75;4980465;28;45246;-57
2022/04/25 06:42:38;;;;;;;;;33.25;29.25;;;;;13.29;43.99;100507.50;4980590;28;45245;-57
2022/04/25 06:45:04;;;;;;;;;30.00;28.75;;;;;13.28;43.73;100506.66;4980627;28;45476;-57
2022/04/25 06:47:29;;;;;;;;;39.50;32.25;;;;;13.32;44.06;100510.94;4978828;28;46830;-57
2022/04/25 06:49:55;;;;;;;;;29.00;27.50;;;;;13.33;43.81;100514.41;4980514;28;45159;-57
2022/04/25 06:52:23;;;;;;;;;31.50;28.50;;;;;13.35;43.89;100514.41;4980560;28;45232;-57
2022/04/25 06:54:50;;;;;;;;;32.25;30.00;;;;;13.36;43.98;100521.38;4980356;28;45262;-57
2022/04/25 06:57:16;;;;;;;;;30.75;28.25;;;;;13.37;43.80;100517.84;4980259;28;46292;-57
2022/04/25 06:59:43;;;;;;;;;34.50;29.25;;;;;13.38;43.79;100524.88;4980293;28;45328;-56
2022/04/25 07:02:10;;;;;;;;;34.75;30.50;;;;;13.36;44.00;100521.38;4980130;28;45163;-57
2022/04/25 07:04:36;;;;;;;;;31.00;30.00;;;;;13.38;43.84;100525.72;4980414;28;45270;-57
2022/04/25 07:07:01;;;;;;;;;30.00;29.25;;;;;13.37;43.73;100526.66;4980161;28;46114;-58
2022/04/25 07:09:26;;;;;;;;;29.50;28.75;;;;;13.36;43.68;100534.56;4980132;28;45314;-58
2022/04/25 07:11:52;;;;;;;;;32.50;31.00;;;;;13.39;43.96;100537.19;4980252;28;45171;-57
2022/04/25 07:14:19;;;;;;;;;36.00;31.75;;;;;13.39;44.00;100537.19;4978900;28;45769;-57
2022/04/25 07:16:48;;;;;;;;;31.75;28.50;;;;;13.38;44.04;100535.44;4980453;28;46589;-56
2022/04/25 07:19:18;;;;;;;;;38.25;32.00;;;;;13.43;44.00;100544.09;4983562;28;45255;-58
2022/04/25 07:29:55;;;;;;;;;34.25;30.75;;;;;13.53;44.18;100542.03;4983455;28;45246;-57
2022/04/25 07:32:21;;;;;;;;;33.50;31.25;;;;;13.54;43.88;100552.56;4982975;28;45295;-56
2022/04/25 07:34:47;;;;;;;;;34.00;31.25;;;;;13.57;43.87;100551.59;4983294;28;45330;-55
2022/04/25 07:37:14;;;;;;;;;29.75;29.75;;;;;13.59;44.26;100557.72;4982022;28;46412;-58
2022/04/25 07:39:40;;;;;;;;;32.50;31.00;;;;;13.62;44.12;100568.16;4981737;28;45461;-58
2022/04/25 07:42:06;;;;;;;;;36.00;32.50;;;;;13.63;44.20;100565.50;4983483;28;45321;-58
2022/04/25 07:44:31;;;;;;;;;33.00;31.50;;;;;13.71;44.05;100573.19;4983095;28;45359;-58
2022/04/25 07:46:58;;;;;;;;;41.50;34.75;;;;;13.77;44.24;100569.50;4982946;28;45395;-58
2022/04/25 07:49:24;;;;;;;;;35.00;32.00;;;;;13.81;44.02;100565.84;4983157;28;45542;-56
2022/04/25 07:51:49;;;;;;;;;33.25;31.75;;;;;13.87;44.09;100568.28;4982065;28;45257;-59
2022/04/25 07:54:15;;;;;;;;;37.75;33.00;;;;;13.94;43.95;100575.13;4981548;28;45743;-58
2022/04/25 07:56:42;;;;;;;;;32.50;30.75;;;;;14.00;44.07;100575.84;4982968;28;45367;-58
2022/04/25 07:59:08;;;;;;;;;28.00;28.00;;;;;14.04;43.87;100567.78;4981523;28;45366;-58
2022/04/25 08:01:34;;;;;;;;;34.75;30.25;;;;;14.09;43.79;100571.13;4982718;28;45413;-57
2022/04/25 08:04:00;;;;;;;;;32.50;28.25;;;;;14.13;44.01;100572.75;4983081;28;45432;-57
2022/04/25 08:06:26;;;;;;;;;33.75;29.50;;;;;14.21;43.89;100584.88;4982765;28;46176;-57
2022/04/25 08:08:53;;;;;;;;;34.25;31.75;;;;;14.25;44.06;100574.16;4982720;28;45276;-58
2022/04/25 08:11:19;;;;;;;;;28.75;28.00;;;;;14.33;43.84;100576.56;4982877;28;45371;-58
2022/04/25 08:19:13;;;;;;;;;28.75;27.50;;;;;14.65;44.08;100587.03;4981725;28;45303;-58
2022/04/25 08:21:43;;;;;;;;;30.25;27.25;;;;;14.74;44.29;100592.00;4982557;28;45488;-58
2022/04/25 08:24:08;;;;;;;;;35.50;32.75;;;;;14.78;44.25;100583.91;4982440;28;45283;-57
2022/04/25 08:26:34;;;;;;;;;32.25;30.25;;;;;14.86;44.08;100590.72;4981105;28;46145;-58
2022/04/25 08:29:00;;;;;;;;;31.00;29.75;;;;;14.90;43.67;100587.03;4982125;28;45271;-58
2022/04/25 08:31:26;;;;;;;;;38.00;33.25;;;;;14.94;44.06;100589.53;4981874;28;45386;-58
2022/04/25 08:33:52;;;;;;;;;34.25;30.75;;;;;14.95;43.42;100590.38;4982528;28;45343;-58
2022/04/25 08:36:18;;;;;;;;;36.00;33.00;;;;;15.00;43.76;100593.75;4982228;28;46226;-57
2022/04/25 08:38:44;;;;;;;;;34.00;30.50;;;;;15.05;43.55;100598.88;4981010;28;45313;-57
2022/04/25 08:41:15;;;;;;;;;29.25;29.25;;;;;15.08;43.21;100602.28;4982040;28;45427;-57
2022/04/25 08:43:42;;;;;;;;;37.50;33.00;;;;;15.11;43.29;100602.16;4982337;28;45473;-57
2022/04/25 08:46:09;;;;;;;;;29.75;29.25;;;;;15.16;43.50;100598.50;4981896;28;46260;-58
2022/04/25 08:48:38;;;;;;;;;36.50;33.25;;;;;15.22;43.15;100603.56;4980873;28;45323;-58
2022/04/25 08:51:04;;;;;;;;;32.75;31.75;;;;;15.27;43.20;100602.50;4980690;28;45379;-58
2022/04/25 08:53:32;;;;;;;;;39.00;34.75;;;;;15.34;43.24;100608.41;4982218;28;45331;-57
2022/04/25 08:56:02;;;;;;;;;36.00;34.00;;;;;15.41;43.32;100612.56;4981687;28;47581;-58
2022/04/25 08:58:28;;;;;;;;;35.75;33.75;;;;;15.50;43.27;100611.38;4982201;28;45662;-58
2022/04/25 09:00:54;;;;;;;;;35.75;31.50;;;;;15.56;43.44;100612.94;4981554;28;45301;-58
2022/04/25 09:03:19;;;;;;;;;29.50;28.25;;;;;15.65;43.54;100612.59;4982111;28;45376;-58
2022/04/25 09:05:46;;;;;;;;;39.75;34.75;;;;;15.71;43.46;100612.38;4981683;28;46313;-58
2022/04/25 09:08:11;;;;;;;;;36.25;34.00;;;;;15.76;43.01;100610.41;4982098;28;45409;-58
2022/04/25 09:10:38;;;;;;;;;37.75;34.00;;;;;15.84;42.97;100611.94;4981605;28;45403;-58
2022/04/25 09:13:03;;;;;;;;;36.25;34.00;;;;;15.85;43.28;100609.22;4981751;28;45397;-58
2022/04/25 09:15:29;;;;;;;;;37.00;33.75;;;;;15.90;43.08;100617.00;4980271;28;47428;-58
2022/04/25 09:17:55;;;;;;;;;26.00;25.50;;;;;15.91;42.91;100611.66;4981486;28;45270;-58
2022/04/25 09:20:22;;;;;;;;;35.25;30.75;;;;;16.00;43.19;100614.84;4981614;28;45350;-57
2022/04/25 09:22:48;;;;;;;;;37.00;32.25;;;;;16.06;42.96;100609.31;4981459;28;45329;-58
2022/04/25 09:25:15;;;;;;;;;34.00;32.75;;;;;16.11;43.37;100612.63;4971470;28;47146;-58
2022/04/25 09:27:42;;;;;;;;;36.00;30.50;;;;;16.18;42.82;100613.28;4981525;28;45350;-58
2022/04/25 09:30:16;;;;;;;;;31.00;28.50;;;;;16.28;42.85;100619.94;4981323;28;45326;-58
2022/04/25 09:32:42;;;;;;;;;33.50;31.50;;;;;16.36;43.00;100622.28;4981004;28;45453;-58
2022/04/25 09:35:29;;;;;;;;;27.75;27.75;;;;;16.46;42.69;100615.66;4981295;28;45684;-58
2022/04/25 09:37:56;;;;;;;;;32.00;28.00;;;;;16.50;42.84;100614.63;4981236;28;45255;-58
2022/04/25 09:40:24;;;;;;;;;32.25;29.50;;;;;16.62;42.87;100615.06;4980204;28;45184;-58
2022/04/25 09:43:11;;;;;;;;;35.00;29.25;;;;;16.69;42.75;100621.81;4981125;28;45451;-58
2022/04/25 09:45:40;;;;;;;;;32.00;28.75;;;;;16.78;42.62;100618.78;4980950;28;46261;-59
2022/04/25 09:48:10;;;;;;;;;29.50;25.75;;;;;16.90;42.50;100630.66;4981230;28;45563;-58
2022/04/25 09:50:37;;;;;;;;;26.75;26.25;;;;;16.99;42.23;100630.34;4981031;28;45298;-58
2022/04/25 09:53:04;;;;;;;;;29.00;26.25;;;;;17.08;42.54;100631.72;4980991;28;45319;-58
2022/04/25 09:55:32;;;;;;;;;27.25;25.25;;;;;17.19;42.37;100636.56;4980646;28;46211;-58
2022/04/25 09:57:57;;;;;;;;;19.50;19.50;;;;;17.27;42.14;100638.88;4981143;28;45487;-58
2022/04/25 10:00:30;;;;;;;;;29.75;25.00;;;;;17.37;42.40;100637.53;4980815;28;45799;-58
2022/04/25 10:02:57;;;;;;;;;29.75;26.00;;;;;17.48;42.17;100635.28;4980898;28;45438;-57
2022/04/25 10:05:22;;;;;;;;;22.00;20.00;;;;;17.60;41.93;100630.34;4980799;28;45280;-58
2022/04/25 10:07:52;;;;;;;;;22.75;21.25;;;;;17.71;41.75;100628.91;4980807;28;45349;-58
2022/04/25 10:10:18;;;;;;;;;24.50;21.75;;;;;17.91;41.95;100642.22;4981017;28;45267;-57
2022/04/25 10:12:43;;;;;;;;;32.50;27.50;;;;;18.06;41.81;100638.88;4980639;28;45295;-58
2022/04/25 10:15:09;;;;;;;;;23.75;21.50;;;;;18.21;41.83;100637.28;4980642;28;46353;-58
2022/04/25 10:17:38;;;;;;;;;26.75;25.75;;;;;18.39;41.93;100637.31;4980526;28;45267;-58
2022/04/25 10:20:04;;;;;;;;;26.25;24.00;;;;;18.59;41.54;100644.34;4980770;28;45364;-58
2022/04/25 10:22:30;;;;;;;;;26.25;25.75;;;;;18.76;41.72;100641.69;4980461;28;45317;-58
2022/04/25 10:24:56;;;;;;;;;23.25;21.75;;;;;18.94;41.49;100647.94;4971455;28;46198;-58
2022/04/25 10:27:28;;;;;;;;;27.50;23.75;;;;;19.15;41.68;100643.28;4980592;28;45307;-58
2022/04/25 10:29:56;;;;;;;;;28.00;25.25;;;;;19.30;41.05;100643.47;4980491;28;45370;-58
2022/04/25 10:32:23;;;;;;;;;27.50;26.00;;;;;19.48;41.65;100642.50;4979761;28;45397;-58
2022/04/25 10:34:53;;;;;;;;;24.00;24.00;;;;;19.59;41.01;100633.06;4980672;28;45246;-58
2022/04/25 10:37:35;;;;;;;;;23.00;22.00;;;;;19.84;40.85;100653.09;4980343;28;45393;-58
2022/04/25 10:40:04;;;;;;;;;23.75;23.75;;;;;19.95;40.74;100645.38;4980417;28;45278;-58
2022/04/25 10:45:13;;;;;;;;;25.50;24.75;;;;;20.09;40.60;100634.78;4980500;28;45408;-58
2022/04/25 10:48:08;;;;;;;;;23.50;19.75;;;;;20.16;40.23;100635.28;4979886;28;45349;-58
2022/04/25 10:51:12;;;;;;;;;25.25;22.25;;;;;20.34;40.55;100646.75;4980167;28;45408;-58
2022/04/25 10:53:59;;;;;;;;;19.00;19.00;;;;;20.56;40.17;100650.84;4980095;28;45346;-58
2022/04/25 10:56:26;;;;;;;;;25.25;24.75;;;;;20.77;40.03;100654.97;4980024;28;45378;-58
2022/04/25 10:59:23;;;;;;;;;23.00;19.00;;;;;20.97;40.37;100658.28;4980001;28;45337;-58
2022/04/25 11:01:50;;;;;;;;;20.75;20.75;;;;;21.09;39.48;100657.56;4979997;28;45192;-57
2022/04/25 11:04:16;;;;;;;;;22.50;17.75;;;;;21.18;39.32;100650.81;4979839;28;45199;-58
2022/04/25 11:06:42;;;;;;;;;20.75;16.75;;;;;21.33;39.54;100657.03;4979856;28;46120;-58
2022/04/25 11:09:07;;;;;;;;;19.50;19.00;;;;;21.53;39.31;100649.59;4978420;28;45217;-57
2022/04/25 11:11:47;;;;;;;;;38.00;30.00;;;;;21.90;39.93;100653.53;4980120;28;45271;-57
2022/04/25 11:14:14;;;;;;;;;26.75;23.75;;;;;22.43;40.26;100660.06;4980163;28;45325;-58
2022/04/25 11:16:40;;;;;;;;;18.25;17.00;;;;;23.04;40.03;100658.66;4979778;28;46360;-57
2022/04/25 11:19:07;;;;;;;;;25.25;23.00;;;;;23.66;39.79;100659.78;4979885;28;45251;-59
2022/04/25 11:21:32;;;;;;;;;23.50;22.50;;;;;24.17;39.75;100653.47;4979965;28;45303;-59
2022/04/25 11:24:01;;;;;;;;;17.25;16.00;;;;;24.63;39.30;100661.81;4976048;28;45521;-59
2022/04/25 11:26:26;;;;;;;;;21.00;19.00;;;;;24.96;38.44;100661.13;4975070;28;46198;-59
2022/04/25 11:31:24;;;;;;;;;24.00;19.25;;;;;25.70;38.44;100661.75;4979386;28;45423;-59
2022/04/25 11:33:56;;;;;;;;;21.50;20.50;;;;;26.32;38.72;100648.78;4979836;28;45314;-60
2022/04/25 11:36:23;;;;;;;;;15.75;13.75;;;;;27.01;38.60;100648.38;4978342;28;47439;-61
2022/04/25 11:41:35;;;;;;;;;15.75;14.25;;;;;28.52;37.79;100653.16;4979719;28;45393;-59
2022/04/25 11:44:01;;;;;;;;;14.25;13.75;;;;;29.27;37.63;100654.41;4979796;28;45504;-60
2022/04/25 11:46:28;;;;;;;;;13.75;13.75;;;;;29.99;37.58;100654.78;4979312;28;45414;-60